createdAt,value
2023-05-19T00:02:21.740Z,101065.70
2023-05-19T00:05:11.475Z,101065.94
2023-05-19T00:08:01.207Z,101064.31
2023-05-19T00:10:49.568Z,101065.08
2023-05-19T00:13:37.623Z,101066.92
2023-05-19T00:16:26.618Z,101065.91
2023-05-19T00:19:14.437Z,101064.66
2023-05-19T00:22:02.657Z,101065.20
2023-05-19T00:24:50.885Z,101064.15
2023-05-19T00:27:38.951Z,101062.86
2023-05-19T00:30:27.014Z,101062.96
2023-05-19T00:33:15.011Z,101056.48
2023-05-19T00:36:03.924Z,101056.43
2023-05-19T00:38:52.545Z,101061.26
2023-05-19T00:41:40.759Z,101059.17
2023-05-19T00:44:28.893Z,101061.04
2023-05-19T00:47:17.193Z,101065.58
2023-05-19T00:50:05.672Z,101066.03
2023-05-19T00:52:54.448Z,101067.58
2023-05-19T00:55:43.025Z,101066.81
2023-05-19T00:58:33.000Z,101062.92
2023-05-19T01:01:22.017Z,101063.88
2023-05-19T01:04:11.564Z,101060.97
2023-05-19T01:06:59.805Z,101062.59
2023-05-19T01:09:47.998Z,101060.08
2023-05-19T01:12:36.419Z,101061.29
2023-05-19T01:15:24.551Z,101061.89
2023-05-19T01:18:14.495Z,101067.77
2023-05-19T01:21:44.644Z,101066.00
2023-05-19T01:25:00.597Z,101067.16
2023-05-19T01:28:01.063Z,101073.92
2023-05-19T01:30:49.980Z,101075.33
2023-05-19T01:33:38.109Z,101075.92
2023-05-19T01:36:26.214Z,101075.58
2023-05-19T01:39:14.212Z,101071.86
2023-05-19T01:42:03.790Z,101068.27
2023-05-19T01:44:51.920Z,101069.70
2023-05-19T01:47:42.723Z,101069.42
2023-05-19T01:50:31.095Z,101074.34
2023-05-19T01:53:19.356Z,101075.10
2023-05-19T01:56:07.899Z,101078.34
2023-05-19T01:59:00.702Z,101074.42
2023-05-19T02:01:53.678Z,101076.62
2023-05-19T02:04:45.294Z,101078.55
2023-05-19T02:07:42.709Z,101082.84
2023-05-19T02:10:31.460Z,101079.58
2023-05-19T02:13:21.609Z,101080.54
2023-05-19T02:16:09.739Z,101085.60
2023-05-19T02:18:59.668Z,101095.54
2023-05-19T02:21:48.039Z,101093.43
2023-05-19T02:24:37.829Z,101097.01
2023-05-19T02:27:26.600Z,101102.42
2023-05-19T02:30:14.685Z,101105.93
2023-05-19T02:33:02.847Z,101108.38
2023-05-19T02:35:50.842Z,101107.14
2023-05-19T02:38:39.064Z,101110.09
2023-05-19T02:41:27.055Z,101109.23
2023-05-19T02:44:15.555Z,101114.45
2023-05-19T02:47:03.681Z,101117.39
2023-05-19T02:49:51.826Z,101114.23
2023-05-19T02:52:39.893Z,101124.30
2023-05-19T02:55:28.189Z,101125.38
2023-05-19T02:58:16.241Z,101128.05
2023-05-19T03:01:04.559Z,101128.60
2023-05-19T03:03:52.786Z,101128.36
2023-05-19T03:06:42.550Z,101136.31
2023-05-19T03:09:31.393Z,101131.14
2023-05-19T03:12:19.522Z,101129.34
2023-05-19T03:15:08.776Z,101128.52
2023-05-19T03:17:57.336Z,101133.64
2023-05-19T03:20:45.661Z,101134.30
2023-05-19T03:23:33.830Z,101133.81
2023-05-19T03:26:23.245Z,101137.66
2023-05-19T03:29:11.631Z,101137.77
2023-05-19T03:32:01.891Z,101138.59
2023-05-19T03:34:50.139Z,101137.38
2023-05-19T03:37:38.513Z,101142.58
2023-05-19T03:40:26.645Z,101141.14
2023-05-19T03:43:18.763Z,101144.90
2023-05-19T03:46:10.839Z,101147.37
2023-05-19T03:49:17.768Z,101144.20
2023-05-19T03:52:24.521Z,101141.31
2023-05-19T03:55:21.558Z,101138.31
2023-05-19T03:58:10.932Z,101135.02
2023-05-19T04:00:58.561Z,101131.23
2023-05-19T04:03:46.901Z,101133.58
2023-05-19T04:06:36.497Z,101135.06
2023-05-19T04:09:24.557Z,101136.52
2023-05-19T04:12:12.836Z,101134.29
2023-05-19T04:15:00.899Z,101135.38
2023-05-19T04:17:49.278Z,101130.90
2023-05-19T04:20:37.455Z,101132.71
2023-05-19T04:23:25.590Z,101133.13
2023-05-19T04:26:15.279Z,101135.41
2023-05-19T04:29:04.822Z,101140.98
2023-05-19T04:31:53.104Z,101144.40
2023-05-19T04:34:45.414Z,101148.82
2023-05-19T04:37:38.593Z,101153.97
2023-05-19T04:40:27.024Z,101159.97
2023-05-19T04:43:16.130Z,101164.13
2023-05-19T04:46:06.602Z,101163.38
2023-05-19T04:48:57.363Z,101162.77
2023-05-19T04:51:46.166Z,101165.74
2023-05-19T04:54:38.556Z,101170.06
2023-05-19T04:57:27.146Z,101169.69
2023-05-19T05:00:15.913Z,101166.91
2023-05-19T05:03:24.662Z,101168.23
2023-05-19T05:06:13.049Z,101162.25
2023-05-19T05:09:01.397Z,101171.08
2023-05-19T05:11:50.139Z,101178.06
2023-05-19T05:14:40.450Z,101178.39
2023-05-19T05:17:29.587Z,101171.93
2023-05-19T05:20:19.748Z,101173.23
2023-05-19T05:23:09.814Z,101175.11
2023-05-19T05:25:59.021Z,101177.73
2023-05-19T05:28:47.300Z,101178.75
2023-05-19T05:31:37.142Z,101177.77
2023-05-19T05:34:25.490Z,101179.91
2023-05-19T05:37:15.317Z,101178.52
2023-05-19T05:40:04.917Z,101181.45
2023-05-19T05:42:55.599Z,101182.56
2023-05-19T05:45:44.042Z,101184.29
2023-05-19T05:48:32.516Z,101187.70
2023-05-19T05:51:24.786Z,101186.27
2023-05-19T05:54:13.900Z,101194.09
2023-05-19T05:57:05.753Z,101196.66
2023-05-19T05:59:53.792Z,101191.02
2023-05-19T06:02:46.823Z,101191.59
2023-05-19T06:05:36.742Z,101194.42
2023-05-19T06:08:24.888Z,101197.23
2023-05-19T06:11:13.001Z,101195.02
2023-05-19T06:14:02.080Z,101196.73
2023-05-19T06:17:06.828Z,101196.37
2023-05-19T06:19:56.314Z,101198.59
2023-05-19T06:22:44.159Z,101200.57
2023-05-19T06:25:32.916Z,101196.19
2023-05-19T06:28:21.355Z,101196.27
2023-05-19T06:31:11.054Z,101200.87
2023-05-19T06:34:07.065Z,101202.27
2023-05-19T06:36:55.632Z,101202.19
2023-05-19T06:39:44.143Z,101202.33
2023-05-19T06:42:32.312Z,101210.45
2023-05-19T06:45:28.410Z,101209.95
2023-05-19T06:48:17.440Z,101207.35
2023-05-19T06:51:05.697Z,101209.16
2023-05-19T06:53:54.005Z,101210.14
2023-05-19T06:56:43.220Z,101211.70
2023-05-19T06:59:31.708Z,101207.17
2023-05-19T07:02:20.522Z,101209.63
2023-05-19T07:05:09.526Z,101208.65
2023-05-19T07:07:57.958Z,101208.23
2023-05-19T07:10:48.094Z,101204.36
2023-05-19T07:13:36.419Z,101208.45
2023-05-19T07:16:25.621Z,101206.86
2023-05-19T07:19:15.331Z,101208.09
2023-05-19T07:22:05.086Z,101207.70
2023-05-19T07:24:53.131Z,101209.52
2023-05-19T07:27:41.380Z,101208.71
2023-05-19T07:30:30.015Z,101208.46
2023-05-19T07:33:18.133Z,101208.45
2023-05-19T07:36:06.395Z,101202.48
2023-05-19T07:38:54.543Z,101204.43
2023-05-19T07:41:42.715Z,101202.20
2023-05-19T07:44:35.007Z,101202.23
2023-05-19T07:47:23.025Z,101199.48
2023-05-19T07:50:11.193Z,101195.10
2023-05-19T07:52:59.305Z,101195.72
2023-05-19T07:55:47.477Z,101198.80
2023-05-19T07:58:35.583Z,101197.70
2023-05-19T08:01:23.624Z,101194.98
2023-05-19T08:04:13.268Z,101195.16
2023-05-19T08:07:03.751Z,101196.73
2023-05-19T08:09:51.538Z,101199.55
2023-05-19T08:12:39.700Z,101198.25
2023-05-19T08:15:27.913Z,101192.92
2023-05-19T08:18:16.071Z,101195.34
2023-05-19T08:21:04.327Z,101189.94
2023-05-19T08:23:52.520Z,101188.37
2023-05-19T08:26:40.858Z,101186.13
2023-05-19T08:29:28.976Z,101187.66
2023-05-19T08:32:17.691Z,101184.96
2023-05-19T08:35:06.069Z,101184.09
2023-05-19T08:37:54.341Z,101183.47
2023-05-19T08:40:42.508Z,101181.08
2023-05-19T08:43:30.492Z,101176.14
2023-05-19T08:46:18.713Z,101171.21
2023-05-19T08:49:12.574Z,101165.91
2023-05-19T08:52:15.439Z,101165.16
2023-05-19T08:55:09.798Z,101163.55
2023-05-19T08:57:58.070Z,101160.03
2023-05-19T09:00:46.778Z,101159.60
2023-05-19T09:03:38.519Z,101157.27
2023-05-19T09:06:26.873Z,101154.43
2023-05-19T09:09:15.874Z,101146.81
2023-05-19T09:12:06.916Z,101141.61
2023-05-19T09:14:55.998Z,101146.36
2023-05-19T09:17:44.983Z,101146.71
2023-05-19T09:20:33.231Z,101147.80
2023-05-19T09:23:21.282Z,101148.47
2023-05-19T09:26:09.385Z,101144.84
2023-05-19T09:28:58.460Z,101138.37
2023-05-19T09:31:56.210Z,101132.91
2023-05-19T09:34:44.014Z,101125.81
2023-05-19T09:37:32.550Z,101125.77
2023-05-19T09:40:20.616Z,101127.20
2023-05-19T09:43:08.806Z,101130.10
2023-05-19T09:46:07.007Z,101124.67
2023-05-19T09:49:23.746Z,101121.88
2023-05-19T09:52:38.799Z,101121.04
2023-05-19T09:55:54.849Z,101114.52
2023-05-19T09:59:10.126Z,101116.68
2023-05-19T10:02:24.580Z,101118.46
2023-05-19T10:05:44.239Z,101108.45
2023-05-19T10:08:59.759Z,101105.84
2023-05-19T10:12:15.082Z,101106.36
2023-05-19T10:15:28.590Z,101103.92
2023-05-19T10:18:43.397Z,101098.61
2023-05-19T10:21:56.930Z,101097.35
2023-05-19T10:25:12.107Z,101091.11
2023-05-19T10:28:37.440Z,101095.31
2023-05-19T10:31:52.236Z,101092.73
2023-05-19T10:35:18.604Z,101089.63
2023-05-19T10:38:38.187Z,101085.99
2023-05-19T10:41:59.563Z,101087.25
2023-05-19T10:45:26.884Z,101090.48
2023-05-19T10:48:41.685Z,101091.80
2023-05-19T10:52:00.128Z,101087.58
2023-05-19T10:55:13.831Z,101086.42
2023-05-19T10:58:28.961Z,101085.20
2023-05-19T11:01:45.499Z,101088.88
2023-05-19T11:04:51.170Z,101087.81
2023-05-19T11:07:42.613Z,101083.40
2023-05-19T11:10:30.605Z,101081.40
2023-05-19T11:13:23.164Z,101084.27
2023-05-19T11:16:11.657Z,101083.11
2023-05-19T11:18:59.740Z,101081.00
2023-05-19T11:21:49.418Z,101079.13
2023-05-19T11:24:40.684Z,101073.88
2023-05-19T11:27:32.991Z,101071.90
2023-05-19T11:30:21.012Z,101069.69
2023-05-19T11:33:09.094Z,101071.56
2023-05-19T11:36:00.011Z,101071.39
2023-05-19T11:38:48.085Z,101070.48
2023-05-19T11:41:40.065Z,101067.98
2023-05-19T11:44:27.663Z,101068.49
2023-05-19T11:47:16.247Z,101070.02
2023-05-19T11:50:04.506Z,101071.23
2023-05-19T11:52:53.378Z,101073.67
2023-05-19T11:55:48.402Z,101073.11
2023-05-19T11:58:37.593Z,101077.10
2023-05-19T12:01:28.743Z,101071.42
2023-05-19T12:04:16.911Z,101069.60
2023-05-19T12:07:05.387Z,101065.20
2023-05-19T12:09:53.799Z,101062.94
2023-05-19T12:12:42.760Z,101060.11
2023-05-19T12:15:31.820Z,101062.40
2023-05-19T12:18:20.300Z,101056.00
2023-05-19T12:21:08.502Z,101057.98
2023-05-19T12:23:56.535Z,101055.08
2023-05-19T12:26:44.733Z,101052.66
2023-05-19T12:29:32.912Z,101048.05
2023-05-19T12:32:28.993Z,101044.16
2023-05-19T12:35:17.122Z,101042.47
2023-05-19T12:38:05.671Z,101041.55
2023-05-19T12:40:53.822Z,101041.17
2023-05-19T12:43:41.967Z,101042.45
2023-05-19T12:46:30.141Z,101044.89
2023-05-19T12:49:18.428Z,101048.06
2023-05-19T12:52:11.898Z,101041.80
2023-05-19T12:55:11.470Z,101039.90
2023-05-19T12:57:59.567Z,101041.44
2023-05-19T13:00:50.071Z,101040.27
2023-05-19T13:03:44.268Z,101041.20
2023-05-19T13:06:33.907Z,101040.59
2023-05-19T13:09:22.027Z,101039.00
2023-05-19T13:12:10.042Z,101036.09
2023-05-19T13:15:00.262Z,101028.87
2023-05-19T13:17:48.459Z,101028.46
2023-05-19T13:20:37.470Z,101024.55
2023-05-19T13:23:26.562Z,101018.58
2023-05-19T13:26:14.820Z,101020.42
2023-05-19T13:29:03.400Z,101016.34
2023-05-19T13:31:51.500Z,101015.04
2023-05-19T13:34:39.670Z,101017.27
2023-05-19T13:37:28.456Z,101020.64
2023-05-19T13:40:17.201Z,101023.90
2023-05-19T13:43:06.255Z,101022.83
2023-05-19T13:45:54.493Z,101022.42
2023-05-19T13:48:42.498Z,101026.87
2023-05-19T13:51:30.653Z,101027.31
2023-05-19T13:54:18.753Z,101035.52
2023-05-19T13:57:06.472Z,101032.55
2023-05-19T14:00:06.053Z,101032.85
2023-05-19T14:03:00.990Z,101033.89
2023-05-19T14:05:49.131Z,101036.55
2023-05-19T14:08:37.185Z,101037.28
2023-05-19T14:11:25.256Z,101036.10
2023-05-19T14:14:13.537Z,101032.65
2023-05-19T14:17:01.695Z,101036.98
2023-05-19T14:19:49.770Z,101037.86
2023-05-19T14:22:37.911Z,101036.60
2023-05-19T14:25:25.987Z,101037.52
2023-05-19T14:28:14.244Z,101034.71
2023-05-19T14:31:02.392Z,101029.44
2023-05-19T14:33:51.030Z,101031.21
2023-05-19T14:36:39.050Z,101033.77
2023-05-19T14:39:27.102Z,101034.20
2023-05-19T14:42:15.297Z,101030.95
2023-05-19T14:45:03.687Z,101027.92
2023-05-19T14:47:52.908Z,101028.36
2023-05-19T14:50:41.068Z,101028.61
2023-05-19T14:53:29.281Z,101028.32
2023-05-19T14:56:17.276Z,101024.51
2023-05-19T14:59:05.355Z,101027.96
2023-05-19T15:01:53.470Z,101030.37
2023-05-19T15:04:41.602Z,101029.17
2023-05-19T15:07:29.616Z,101029.35
2023-05-19T15:10:20.680Z,101033.77
2023-05-19T15:13:08.796Z,101031.71
2023-05-19T15:16:12.459Z,101036.23
2023-05-19T15:19:04.221Z,101042.23
2023-05-19T15:21:52.361Z,101044.80
2023-05-19T15:24:41.404Z,101042.27
2023-05-19T15:27:29.640Z,101040.55
2023-05-19T15:30:18.073Z,101043.67
2023-05-19T15:33:06.367Z,101049.15
2023-05-19T15:35:54.637Z,101050.68
2023-05-19T15:38:42.856Z,101051.60
2023-05-19T15:41:30.879Z,101057.11
2023-05-19T15:44:19.258Z,101056.67
2023-05-19T15:47:07.376Z,101056.81
2023-05-19T15:49:55.693Z,101059.52
2023-05-19T15:52:43.751Z,101067.06
2023-05-19T15:55:31.882Z,101072.80
2023-05-19T15:58:20.041Z,101079.27
2023-05-19T16:01:08.322Z,101088.37
2023-05-19T16:03:56.529Z,101091.79
2023-05-19T16:06:45.014Z,101096.44
2023-05-19T16:09:33.147Z,101100.10
2023-05-19T16:12:21.203Z,101105.91
2023-05-19T16:15:09.742Z,101112.67
2023-05-19T16:17:58.058Z,101119.70
2023-05-19T16:20:46.258Z,101124.06
2023-05-19T16:23:34.354Z,101126.42
2023-05-19T16:26:22.973Z,101130.29
2023-05-19T16:29:11.093Z,101130.48
2023-05-19T16:31:59.249Z,101129.75
2023-05-19T16:34:47.403Z,101130.25
2023-05-19T16:37:35.568Z,101133.19
2023-05-19T16:40:23.775Z,101129.42
2023-05-19T16:43:11.844Z,101133.10
2023-05-19T16:46:00.070Z,101131.39
2023-05-19T16:48:48.146Z,101134.58
2023-05-19T16:51:36.386Z,101139.01
2023-05-19T16:54:24.865Z,101144.61
2023-05-19T16:57:15.027Z,101145.58
2023-05-19T17:00:03.984Z,101144.21
2023-05-19T17:02:52.327Z,101148.00
2023-05-19T17:05:42.069Z,101147.99
2023-05-19T17:08:30.115Z,101149.43
2023-05-19T17:11:18.224Z,101150.61
2023-05-19T17:14:09.483Z,101154.55
2023-05-19T17:16:57.629Z,101156.16
2023-05-19T17:19:46.164Z,101158.36
2023-05-19T17:22:34.288Z,101156.36
2023-05-19T17:25:22.409Z,101162.52
2023-05-19T17:28:10.590Z,101163.95
2023-05-19T17:30:58.768Z,101167.10
2023-05-19T17:33:46.949Z,101169.32
2023-05-19T17:36:35.106Z,101169.70
2023-05-19T17:39:24.603Z,101168.77
2023-05-19T17:42:12.714Z,101170.56
2023-05-19T17:45:00.731Z,101171.25
2023-05-19T17:48:14.585Z,101177.58
2023-05-19T17:51:30.114Z,101186.84
2023-05-19T17:54:43.224Z,101191.58
2023-05-19T17:57:59.014Z,101194.61
2023-05-19T18:01:12.553Z,101198.92
2023-05-19T18:04:27.756Z,101205.84
2023-05-19T18:07:41.214Z,101207.43
2023-05-19T18:10:56.067Z,101211.38
2023-05-19T18:14:09.609Z,101209.34
2023-05-19T18:17:24.768Z,101210.24
2023-05-19T18:20:38.319Z,101210.14
2023-05-19T18:23:53.146Z,101209.52
2023-05-19T18:27:06.089Z,101207.86
2023-05-19T18:30:21.647Z,101208.02
2023-05-19T18:33:35.527Z,101208.30
2023-05-19T18:36:51.052Z,101210.27
2023-05-19T18:40:04.880Z,101215.80
2023-05-19T18:43:20.404Z,101217.73
2023-05-19T18:46:33.645Z,101213.10
2023-05-19T18:49:50.420Z,101216.47
2023-05-19T18:53:03.494Z,101220.16
2023-05-19T18:56:19.007Z,101223.88
2023-05-19T18:59:32.524Z,101228.85
2023-05-19T19:02:47.546Z,101227.55
2023-05-19T19:06:00.434Z,101232.45
2023-05-19T19:09:15.294Z,101231.99
2023-05-19T19:12:28.779Z,101232.52
2023-05-19T19:15:35.514Z,101232.66
2023-05-19T19:18:48.894Z,101234.91
2023-05-19T19:22:02.701Z,101235.55
2023-05-19T19:25:16.781Z,101238.83
2023-05-19T19:28:31.952Z,101237.02
2023-05-19T19:31:45.740Z,101239.23
2023-05-19T19:35:01.021Z,101240.52
2023-05-19T19:38:17.155Z,101247.41
2023-05-19T19:41:32.572Z,101247.84
2023-05-19T19:44:46.599Z,101252.17
2023-05-19T19:48:02.218Z,101255.52
2023-05-19T19:51:22.419Z,101265.20
2023-05-19T19:54:37.296Z,101264.45
2023-05-19T19:57:50.373Z,101264.34
2023-05-19T20:46:41.558Z,101294.96
2023-05-19T20:49:57.230Z,101289.09
2023-05-19T20:53:10.450Z,101287.78
2023-05-19T20:56:25.311Z,101286.49
2023-05-19T20:59:38.586Z,101284.56
2023-05-19T21:02:54.249Z,101285.84
2023-05-19T21:06:07.730Z,101286.84
2023-05-19T21:09:22.827Z,101285.48
2023-05-19T21:12:35.444Z,101289.59
2023-05-19T21:15:50.465Z,101287.52
2023-05-19T21:19:03.919Z,101289.82
2023-05-19T21:22:19.176Z,101289.52
2023-05-19T21:25:32.976Z,101293.30
2023-05-19T21:28:48.237Z,101293.83
2023-05-19T21:32:01.974Z,101294.16
2023-05-19T21:35:17.195Z,101289.94
2023-05-19T21:38:31.608Z,101291.89
2023-05-19T21:41:46.549Z,101293.45
2023-05-19T21:44:59.637Z,101296.91
2023-05-19T21:48:14.845Z,101297.19
2023-05-19T21:51:28.968Z,101301.42
2023-05-19T21:54:45.649Z,101298.84
2023-05-19T21:58:44.823Z,101301.69
2023-05-19T22:02:46.447Z,101300.54
2023-05-19T22:06:46.979Z,101300.15
2023-05-19T22:10:48.782Z,101300.11
2023-05-19T22:14:47.939Z,101300.98
2023-05-19T22:18:49.304Z,101304.82
2023-05-19T22:22:48.098Z,101307.64
2023-05-19T22:26:49.780Z,101309.49
2023-05-19T22:30:46.967Z,101314.42
2023-05-19T22:34:48.449Z,101310.19
2023-05-19T22:38:46.928Z,101312.52
2023-05-19T22:42:48.267Z,101310.44
2023-05-19T22:46:47.005Z,101314.71
2023-05-19T22:50:48.471Z,101319.41
2023-05-19T22:54:46.000Z,101318.39
2023-05-19T22:58:47.462Z,101315.63
2023-05-19T23:02:46.185Z,101313.98
2023-05-19T23:06:47.423Z,101315.50
2023-05-19T23:10:46.039Z,101314.42
2023-05-19T23:14:47.369Z,101309.58
2023-05-19T23:18:45.952Z,101310.77
2023-05-19T23:22:47.553Z,101303.21
2023-05-19T23:26:46.893Z,101301.27
2023-05-19T23:30:48.671Z,101300.67
2023-05-19T23:34:47.044Z,101299.34
2023-05-19T23:38:48.398Z,101301.53
2023-05-19T23:42:47.158Z,101303.55
2023-05-19T23:46:48.465Z,101306.00
2023-05-19T23:50:46.099Z,101307.84
2023-05-19T23:54:46.514Z,101309.02
2023-05-19T23:58:44.379Z,101309.76
